sensor_id;sensor_type;location;lat;lon;timestamp;P1;durP1;ratioP1;P2;durP2;ratioP2
15110;SDS011;7656;51.954;7.998;2023-04-03T00:01:11;1.90;;;0.93;;
15110;SDS011;7656;51.954;7.998;2023-04-03T00:05:32;2.03;;;1.17;;
15110;SDS011;7656;51.954;7.998;2023-04-03T00:09:53;3.67;;;1.60;;
15110;SDS011;7656;51.954;7.998;2023-04-03T00:14:14;2.40;;;1.00;;
15110;SDS011;7656;51.954;7.998;2023-04-03T00:18:35;1.20;;;0.80;;
15110;SDS011;7656;51.954;7.998;2023-04-03T00:22:58;2.17;;;1.00;;
15110;SDS011;7656;51.954;7.998;2023-04-03T00:27:19;1.20;;;1.10;;
15110;SDS011;7656;51.954;7.998;2023-04-03T00:31:40;2.43;;;1.00;;
15110;SDS011;7656;51.954;7.998;2023-04-03T00:36:06;1.57;;;0.90;;
15110;SDS011;7656;51.954;7.998;2023-04-03T00:40:33;1.03;;;0.93;;
15110;SDS011;7656;51.954;7.998;2023-04-03T00:49:21;3.73;;;1.60;;
15110;SDS011;7656;51.954;7.998;2023-04-03T00:53:55;2.10;;;1.40;;
15110;SDS011;7656;51.954;7.998;2023-04-03T00:58:20;2.10;;;1.47;;
15110;SDS011;7656;51.954;7.998;2023-04-03T01:02:49;2.00;;;1.37;;
15110;SDS011;7656;51.954;7.998;2023-04-03T01:07:12;3.37;;;1.40;;
15110;SDS011;7656;51.954;7.998;2023-04-03T01:11:38;2.00;;;1.50;;
15110;SDS011;7656;51.954;7.998;2023-04-03T01:16:03;0.80;;;0.80;;
15110;SDS011;7656;51.954;7.998;2023-04-03T01:24:59;2.37;;;1.67;;
15110;SDS011;7656;51.954;7.998;2023-04-03T01:29:20;2.27;;;1.40;;
15110;SDS011;7656;51.954;7.998;2023-04-03T01:33:42;1.50;;;1.40;;
15110;SDS011;7656;51.954;7.998;2023-04-03T01:38:04;2.30;;;1.07;;
15110;SDS011;7656;51.954;7.998;2023-04-03T01:42:25;1.80;;;1.20;;
15110;SDS011;7656;51.954;7.998;2023-04-03T01:46:47;2.53;;;0.90;;
15110;SDS011;7656;51.954;7.998;2023-04-03T01:51:08;3.60;;;1.13;;
15110;SDS011;7656;51.954;7.998;2023-04-03T01:55:30;2.90;;;1.67;;
15110;SDS011;7656;51.954;7.998;2023-04-03T01:59:51;3.30;;;1.67;;
15110;SDS011;7656;51.954;7.998;2023-04-03T02:04:12;2.80;;;1.30;;
15110;SDS011;7656;51.954;7.998;2023-04-03T02:08:33;1.63;;;1.37;;
15110;SDS011;7656;51.954;7.998;2023-04-03T02:12:55;1.13;;;1.00;;
15110;SDS011;7656;51.954;7.998;2023-04-03T02:17:16;2.10;;;1.00;;
15110;SDS011;7656;51.954;7.998;2023-04-03T02:21:37;2.63;;;1.03;;
15110;SDS011;7656;51.954;7.998;2023-04-03T02:26:02;1.63;;;1.20;;
15110;SDS011;7656;51.954;7.998;2023-04-03T02:30:29;2.43;;;1.50;;
15110;SDS011;7656;51.954;7.998;2023-04-03T02:34:50;1.97;;;1.77;;
15110;SDS011;7656;51.954;7.998;2023-04-03T02:39:12;2.57;;;1.53;;
15110;SDS011;7656;51.954;7.998;2023-04-03T02:43:33;2.37;;;1.40;;
15110;SDS011;7656;51.954;7.998;2023-04-03T02:47:55;1.47;;;1.20;;
15110;SDS011;7656;51.954;7.998;2023-04-03T02:52:16;1.87;;;1.10;;
15110;SDS011;7656;51.954;7.998;2023-04-03T02:56:37;1.20;;;1.10;;
15110;SDS011;7656;51.954;7.998;2023-04-03T03:00:59;1.53;;;1.00;;
15110;SDS011;7656;51.954;7.998;2023-04-03T03:05:20;1.80;;;1.20;;
15110;SDS011;7656;51.954;7.998;2023-04-03T03:09:42;3.13;;;1.50;;
15110;SDS011;7656;51.954;7.998;2023-04-03T03:14:03;1.83;;;1.00;;
15110;SDS011;7656;51.954;7.998;2023-04-03T03:18:24;1.97;;;1.50;;
15110;SDS011;7656;51.954;7.998;2023-04-03T03:22:45;0.90;;;0.87;;
15110;SDS011;7656;51.954;7.998;2023-04-03T03:27:06;2.13;;;1.40;;
15110;SDS011;7656;51.954;7.998;2023-04-03T03:31:27;4.07;;;1.20;;
15110;SDS011;7656;51.954;7.998;2023-04-03T03:35:48;3.20;;;1.60;;
15110;SDS011;7656;51.954;7.998;2023-04-03T03:40:10;2.03;;;1.23;;
15110;SDS011;7656;51.954;7.998;2023-04-03T03:44:33;2.17;;;1.10;;
15110;SDS011;7656;51.954;7.998;2023-04-03T03:48:54;3.23;;;1.10;;
15110;SDS011;7656;51.954;7.998;2023-04-03T03:53:15;2.60;;;1.27;;
15110;SDS011;7656;51.954;7.998;2023-04-03T03:57:37;1.90;;;1.10;;
15110;SDS011;7656;51.954;7.998;2023-04-03T04:02:00;3.30;;;1.67;;
15110;SDS011;7656;51.954;7.998;2023-04-03T04:06:21;1.57;;;0.90;;
15110;SDS011;7656;51.954;7.998;2023-04-03T04:10:43;2.23;;;1.43;;
15110;SDS011;7656;51.954;7.998;2023-04-03T04:15:06;3.97;;;1.10;;
15110;SDS011;7656;51.954;7.998;2023-04-03T04:19:28;1.10;;;1.00;;
15110;SDS011;7656;51.954;7.998;2023-04-03T04:23:49;4.33;;;1.40;;
15110;SDS011;7656;51.954;7.998;2023-04-03T04:28:11;1.50;;;1.30;;
15110;SDS011;7656;51.954;7.998;2023-04-03T04:32:32;3.43;;;1.57;;
15110;SDS011;7656;51.954;7.998;2023-04-03T04:36:54;2.53;;;1.17;;
15110;SDS011;7656;51.954;7.998;2023-04-03T04:41:15;1.93;;;1.40;;
15110;SDS011;7656;51.954;7.998;2023-04-03T04:45:38;3.30;;;1.80;;
15110;SDS011;7656;51.954;7.998;2023-04-03T04:50:00;3.00;;;1.50;;
15110;SDS011;7656;51.954;7.998;2023-04-03T04:54:21;3.13;;;1.60;;
15110;SDS011;7656;51.954;7.998;2023-04-03T04:58:43;1.53;;;1.33;;
15110;SDS011;7656;51.954;7.998;2023-04-03T05:03:04;2.97;;;1.50;;
15110;SDS011;7656;51.954;7.998;2023-04-03T05:07:32;4.60;;;1.57;;
15110;SDS011;7656;51.954;7.998;2023-04-03T05:11:55;3.77;;;1.50;;
15110;SDS011;7656;51.954;7.998;2023-04-03T05:16:20;1.90;;;1.40;;
15110;SDS011;7656;51.954;7.998;2023-04-03T05:20:41;4.60;;;1.87;;
15110;SDS011;7656;51.954;7.998;2023-04-03T05:25:04;2.63;;;1.87;;
15110;SDS011;7656;51.954;7.998;2023-04-03T05:29:26;2.27;;;1.40;;
15110;SDS011;7656;51.954;7.998;2023-04-03T05:33:48;4.60;;;1.60;;
15110;SDS011;7656;51.954;7.998;2023-04-03T05:38:12;9.23;;;4.37;;
15110;SDS011;7656;51.954;7.998;2023-04-03T05:42:33;5.30;;;2.40;;
15110;SDS011;7656;51.954;7.998;2023-04-03T05:46:55;3.57;;;1.40;;
15110;SDS011;7656;51.954;7.998;2023-04-03T05:51:17;2.13;;;1.43;;
15110;SDS011;7656;51.954;7.998;2023-04-03T05:55:48;2.73;;;1.53;;
15110;SDS011;7656;51.954;7.998;2023-04-03T06:00:12;3.23;;;2.03;;
15110;SDS011;7656;51.954;7.998;2023-04-03T06:04:39;2.40;;;1.43;;
15110;SDS011;7656;51.954;7.998;2023-04-03T06:09:01;2.10;;;1.23;;
15110;SDS011;7656;51.954;7.998;2023-04-03T06:13:22;2.60;;;1.20;;
15110;SDS011;7656;51.954;7.998;2023-04-03T06:17:45;3.83;;;1.63;;
15110;SDS011;7656;51.954;7.998;2023-04-03T06:22:06;3.40;;;1.50;;
15110;SDS011;7656;51.954;7.998;2023-04-03T06:26:28;2.77;;;1.83;;
15110;SDS011;7656;51.954;7.998;2023-04-03T06:30:49;2.60;;;1.60;;
15110;SDS011;7656;51.954;7.998;2023-04-03T06:35:10;2.40;;;1.50;;
15110;SDS011;7656;51.954;7.998;2023-04-03T06:39:31;2.13;;;1.47;;
15110;SDS011;7656;51.954;7.998;2023-04-03T06:43:53;4.17;;;1.80;;
15110;SDS011;7656;51.954;7.998;2023-04-03T06:48:16;3.30;;;1.30;;
15110;SDS011;7656;51.954;7.998;2023-04-03T06:52:38;1.30;;;1.20;;
15110;SDS011;7656;51.954;7.998;2023-04-03T06:57:00;3.67;;;1.30;;
15110;SDS011;7656;51.954;7.998;2023-04-03T07:01:21;3.33;;;1.50;;
15110;SDS011;7656;51.954;7.998;2023-04-03T07:05:44;2.10;;;1.40;;
15110;SDS011;7656;51.954;7.998;2023-04-03T07:10:06;2.43;;;1.50;;
15110;SDS011;7656;51.954;7.998;2023-04-03T07:14:28;5.17;;;3.00;;
15110;SDS011;7656;51.954;7.998;2023-04-03T07:18:50;2.22;;;1.42;;
15110;SDS011;7656;51.954;7.998;2023-04-03T07:23:11;3.53;;;1.55;;
15110;SDS011;7656;51.954;7.998;2023-04-03T07:27:33;3.35;;;1.67;;
15110;SDS011;7656;51.954;7.998;2023-04-03T07:31:55;2.50;;;1.38;;
15110;SDS011;7656;51.954;7.998;2023-04-03T07:36:18;3.25;;;1.88;;
15110;SDS011;7656;51.954;7.998;2023-04-03T07:40:44;1.63;;;1.45;;
15110;SDS011;7656;51.954;7.998;2023-04-03T07:45:10;1.77;;;1.15;;
15110;SDS011;7656;51.954;7.998;2023-04-03T07:49:31;1.58;;;1.35;;
15110;SDS011;7656;51.954;7.998;2023-04-03T07:53:53;2.17;;;1.45;;
15110;SDS011;7656;51.954;7.998;2023-04-03T07:58:16;1.52;;;1.30;;
15110;SDS011;7656;51.954;7.998;2023-04-03T08:02:38;1.67;;;1.10;;
15110;SDS011;7656;51.954;7.998;2023-04-03T08:07:00;1.95;;;1.00;;
15110;SDS011;7656;51.954;7.998;2023-04-03T08:11:21;1.42;;;1.10;;
15110;SDS011;7656;51.954;7.998;2023-04-03T08:15:44;2.63;;;1.05;;
15110;SDS011;7656;51.954;7.998;2023-04-03T08:20:06;2.13;;;1.10;;
15110;SDS011;7656;51.954;7.998;2023-04-03T08:24:28;1.85;;;1.00;;
15110;SDS011;7656;51.954;7.998;2023-04-03T08:28:50;1.60;;;0.98;;
15110;SDS011;7656;51.954;7.998;2023-04-03T08:33:12;1.25;;;0.90;;
15110;SDS011;7656;51.954;7.998;2023-04-03T08:37:34;2.60;;;2.30;;
15110;SDS011;7656;51.954;7.998;2023-04-03T08:41:57;2.93;;;1.30;;
15110;SDS011;7656;51.954;7.998;2023-04-03T08:46:21;1.27;;;0.97;;
15110;SDS011;7656;51.954;7.998;2023-04-03T08:50:47;1.33;;;0.97;;
15110;SDS011;7656;51.954;7.998;2023-04-03T08:59:56;1.13;;;1.03;;
15110;SDS011;7656;51.954;7.998;2023-04-03T09:04:19;1.60;;;1.17;;
15110;SDS011;7656;51.954;7.998;2023-04-03T09:08:45;2.73;;;0.87;;
15110;SDS011;7656;51.954;7.998;2023-04-03T09:22:41;2.10;;;0.83;;
15110;SDS011;7656;51.954;7.998;2023-04-03T09:27:05;0.93;;;0.82;;
15110;SDS011;7656;51.954;7.998;2023-04-03T09:31:29;1.50;;;0.95;;
15110;SDS011;7656;51.954;7.998;2023-04-03T09:35:59;1.27;;;0.90;;
15110;SDS011;7656;51.954;7.998;2023-04-03T09:45:29;2.30;;;0.83;;
15110;SDS011;7656;51.954;7.998;2023-04-03T09:54:37;1.63;;;0.80;;
15110;SDS011;7656;51.954;7.998;2023-04-03T10:03:34;1.80;;;0.70;;
15110;SDS011;7656;51.954;7.998;2023-04-03T10:08:07;0.73;;;0.53;;
15110;SDS011;7656;51.954;7.998;2023-04-03T10:12:31;1.90;;;0.80;;
15110;SDS011;7656;51.954;7.998;2023-04-03T10:17:19;0.97;;;0.57;;
15110;SDS011;7656;51.954;7.998;2023-04-03T10:21:46;1.27;;;0.83;;
15110;SDS011;7656;51.954;7.998;2023-04-03T10:45:15;1.33;;;0.63;;
15110;SDS011;7656;51.954;7.998;2023-04-03T10:58:31;0.87;;;0.73;;
15110;SDS011;7656;51.954;7.998;2023-04-03T11:02:56;0.57;;;0.57;;
15110;SDS011;7656;51.954;7.998;2023-04-03T11:07:22;1.67;;;0.97;;
15110;SDS011;7656;51.954;7.998;2023-04-03T11:11:46;0.93;;;0.90;;
15110;SDS011;7656;51.954;7.998;2023-04-03T11:16:11;0.53;;;0.40;;
15110;SDS011;7656;51.954;7.998;2023-04-03T11:20:36;1.13;;;0.90;;
15110;SDS011;7656;51.954;7.998;2023-04-03T11:29:33;1.37;;;0.90;;
15110;SDS011;7656;51.954;7.998;2023-04-03T11:34:08;1.47;;;1.10;;
15110;SDS011;7656;51.954;7.998;2023-04-03T11:38:42;0.60;;;0.60;;
15110;SDS011;7656;51.954;7.998;2023-04-03T11:43:07;1.30;;;0.60;;
15110;SDS011;7656;51.954;7.998;2023-04-03T11:48:04;1.40;;;1.17;;
15110;SDS011;7656;51.954;7.998;2023-04-03T12:02:13;2.23;;;0.87;;
15110;SDS011;7656;51.954;7.998;2023-04-03T12:07:12;3.10;;;1.33;;
15110;SDS011;7656;51.954;7.998;2023-04-03T12:11:35;0.73;;;0.73;;
15110;SDS011;7656;51.954;7.998;2023-04-03T12:15:57;0.87;;;0.83;;
15110;SDS011;7656;51.954;7.998;2023-04-03T12:25:40;1.37;;;0.80;;
15110;SDS011;7656;51.954;7.998;2023-04-03T12:30:24;2.23;;;1.20;;
15110;SDS011;7656;51.954;7.998;2023-04-03T12:39:24;1.50;;;0.77;;
15110;SDS011;7656;51.954;7.998;2023-04-03T12:53:27;0.90;;;0.90;;
15110;SDS011;7656;51.954;7.998;2023-04-03T12:57:54;1.77;;;1.00;;
15110;SDS011;7656;51.954;7.998;2023-04-03T13:02:26;1.57;;;1.00;;
15110;SDS011;7656;51.954;7.998;2023-04-03T13:06:53;2.27;;;1.10;;
15110;SDS011;7656;51.954;7.998;2023-04-03T13:11:15;0.97;;;0.90;;
15110;SDS011;7656;51.954;7.998;2023-04-03T13:15:41;3.10;;;1.30;;
15110;SDS011;7656;51.954;7.998;2023-04-03T13:20:12;2.83;;;1.40;;
15110;SDS011;7656;51.954;7.998;2023-04-03T13:24:43;2.97;;;0.80;;
15110;SDS011;7656;51.954;7.998;2023-04-03T13:29:14;2.17;;;1.57;;
15110;SDS011;7656;51.954;7.998;2023-04-03T13:34:29;2.17;;;1.47;;
15110;SDS011;7656;51.954;7.998;2023-04-03T13:38:43;2.77;;;1.10;;
15110;SDS011;7656;51.954;7.998;2023-04-03T13:43:14;2.43;;;1.07;;
15110;SDS011;7656;51.954;7.998;2023-04-03T13:47:41;1.93;;;0.90;;
15110;SDS011;7656;51.954;7.998;2023-04-03T13:56:54;2.47;;;1.00;;
15110;SDS011;7656;51.954;7.998;2023-04-03T14:01:18;0.53;;;0.53;;
15110;SDS011;7656;51.954;7.998;2023-04-03T14:05:41;1.10;;;0.60;;
15110;SDS011;7656;51.954;7.998;2023-04-03T14:10:03;2.47;;;0.97;;
15110;SDS011;7656;51.954;7.998;2023-04-03T14:14:29;3.23;;;0.90;;
15110;SDS011;7656;51.954;7.998;2023-04-03T14:18:52;1.10;;;0.70;;
15110;SDS011;7656;51.954;7.998;2023-04-03T14:23:14;1.57;;;1.00;;
15110;SDS011;7656;51.954;7.998;2023-04-03T14:27:37;2.40;;;1.00;;
15110;SDS011;7656;51.954;7.998;2023-04-03T14:32:00;2.40;;;1.00;;
15110;SDS011;7656;51.954;7.998;2023-04-03T14:36:25;1.97;;;1.10;;
15110;SDS011;7656;51.954;7.998;2023-04-03T14:40:48;2.87;;;1.07;;
15110;SDS011;7656;51.954;7.998;2023-04-03T14:45:10;2.30;;;0.63;;
15110;SDS011;7656;51.954;7.998;2023-04-03T14:49:33;1.07;;;0.93;;
15110;SDS011;7656;51.954;7.998;2023-04-03T14:53:54;2.30;;;0.70;;
15110;SDS011;7656;51.954;7.998;2023-04-03T14:58:17;2.97;;;1.70;;
15110;SDS011;7656;51.954;7.998;2023-04-03T15:02:40;6.77;;;2.50;;
15110;SDS011;7656;51.954;7.998;2023-04-03T15:07:02;5.20;;;1.10;;
15110;SDS011;7656;51.954;7.998;2023-04-03T15:11:24;1.80;;;1.07;;
15110;SDS011;7656;51.954;7.998;2023-04-03T15:15:46;1.50;;;0.90;;
15110;SDS011;7656;51.954;7.998;2023-04-03T15:20:12;1.13;;;1.00;;
15110;SDS011;7656;51.954;7.998;2023-04-03T15:24:36;2.20;;;0.77;;
15110;SDS011;7656;51.954;7.998;2023-04-03T15:28:57;1.67;;;1.00;;
15110;SDS011;7656;51.954;7.998;2023-04-03T15:33:19;2.63;;;0.90;;
15110;SDS011;7656;51.954;7.998;2023-04-03T15:37:40;2.57;;;0.90;;
15110;SDS011;7656;51.954;7.998;2023-04-03T15:42:02;0.73;;;0.70;;
15110;SDS011;7656;51.954;7.998;2023-04-03T15:46:26;1.73;;;1.17;;
15110;SDS011;7656;51.954;7.998;2023-04-03T15:50:47;2.77;;;1.37;;
15110;SDS011;7656;51.954;7.998;2023-04-03T15:55:09;2.13;;;1.57;;
15110;SDS011;7656;51.954;7.998;2023-04-03T15:59:30;2.67;;;1.20;;
15110;SDS011;7656;51.954;7.998;2023-04-03T16:03:52;2.70;;;1.07;;
15110;SDS011;7656;51.954;7.998;2023-04-03T16:08:14;4.77;;;2.30;;
15110;SDS011;7656;51.954;7.998;2023-04-03T16:12:36;2.83;;;1.60;;
15110;SDS011;7656;51.954;7.998;2023-04-03T16:16:58;3.37;;;1.30;;
15110;SDS011;7656;51.954;7.998;2023-04-03T16:21:20;2.60;;;1.00;;
15110;SDS011;7656;51.954;7.998;2023-04-03T16:25:41;2.50;;;1.40;;
15110;SDS011;7656;51.954;7.998;2023-04-03T16:30:06;1.90;;;1.13;;
15110;SDS011;7656;51.954;7.998;2023-04-03T16:34:28;1.57;;;0.97;;
15110;SDS011;7656;51.954;7.998;2023-04-03T16:38:53;2.30;;;1.10;;
15110;SDS011;7656;51.954;7.998;2023-04-03T16:43:15;3.30;;;1.30;;
15110;SDS011;7656;51.954;7.998;2023-04-03T16:47:36;1.23;;;1.10;;
15110;SDS011;7656;51.954;7.998;2023-04-03T16:51:58;1.20;;;1.10;;
15110;SDS011;7656;51.954;7.998;2023-04-03T16:56:21;3.30;;;1.00;;
15110;SDS011;7656;51.954;7.998;2023-04-03T17:00:42;1.20;;;1.00;;
15110;SDS011;7656;51.954;7.998;2023-04-03T17:05:04;2.83;;;0.93;;
15110;SDS011;7656;51.954;7.998;2023-04-03T17:09:26;3.03;;;1.13;;
15110;SDS011;7656;51.954;7.998;2023-04-03T17:13:48;2.00;;;1.27;;
15110;SDS011;7656;51.954;7.998;2023-04-03T17:18:09;1.23;;;1.10;;
15110;SDS011;7656;51.954;7.998;2023-04-03T17:22:31;1.70;;;0.83;;
15110;SDS011;7656;51.954;7.998;2023-04-03T17:26:52;1.87;;;0.90;;
15110;SDS011;7656;51.954;7.998;2023-04-03T17:31:14;1.93;;;0.90;;
15110;SDS011;7656;51.954;7.998;2023-04-03T17:35:35;1.00;;;0.90;;
15110;SDS011;7656;51.954;7.998;2023-04-03T17:39:57;3.63;;;1.10;;
15110;SDS011;7656;51.954;7.998;2023-04-03T17:44:18;2.27;;;0.83;;
15110;SDS011;7656;51.954;7.998;2023-04-03T17:48:40;0.90;;;0.70;;
15110;SDS011;7656;51.954;7.998;2023-04-03T17:53:02;1.87;;;0.73;;
15110;SDS011;7656;51.954;7.998;2023-04-03T17:57:24;2.87;;;1.00;;
15110;SDS011;7656;51.954;7.998;2023-04-03T18:01:45;0.80;;;0.67;;
15110;SDS011;7656;51.954;7.998;2023-04-03T18:06:08;2.43;;;0.97;;
15110;SDS011;7656;51.954;7.998;2023-04-03T18:10:31;6.93;;;3.07;;
15110;SDS011;7656;51.954;7.998;2023-04-03T18:14:55;6.33;;;2.67;;
15110;SDS011;7656;51.954;7.998;2023-04-03T18:19:18;2.50;;;1.30;;
15110;SDS011;7656;51.954;7.998;2023-04-03T18:23:41;2.90;;;1.40;;
15110;SDS011;7656;51.954;7.998;2023-04-03T18:28:08;1.97;;;1.37;;
15110;SDS011;7656;51.954;7.998;2023-04-03T18:32:29;2.23;;;1.40;;
15110;SDS011;7656;51.954;7.998;2023-04-03T18:36:51;1.47;;;1.23;;
15110;SDS011;7656;51.954;7.998;2023-04-03T18:41:13;0.90;;;0.90;;
15110;SDS011;7656;51.954;7.998;2023-04-03T18:45:34;2.30;;;1.07;;
15110;SDS011;7656;51.954;7.998;2023-04-03T18:49:56;2.00;;;0.90;;
15110;SDS011;7656;51.954;7.998;2023-04-03T18:54:18;0.93;;;0.80;;
15110;SDS011;7656;51.954;7.998;2023-04-03T18:58:40;1.03;;;0.93;;
15110;SDS011;7656;51.954;7.998;2023-04-03T19:03:01;1.03;;;0.87;;
15110;SDS011;7656;51.954;7.998;2023-04-03T19:07:23;3.47;;;1.10;;
15110;SDS011;7656;51.954;7.998;2023-04-03T19:11:47;2.27;;;0.80;;
15110;SDS011;7656;51.954;7.998;2023-04-03T19:16:08;1.03;;;0.80;;
15110;SDS011;7656;51.954;7.998;2023-04-03T19:20:30;0.90;;;0.80;;
15110;SDS011;7656;51.954;7.998;2023-04-03T19:24:51;3.37;;;1.30;;
15110;SDS011;7656;51.954;7.998;2023-04-03T19:29:13;1.73;;;1.30;;
15110;SDS011;7656;51.954;7.998;2023-04-03T19:33:34;2.97;;;1.13;;
15110;SDS011;7656;51.954;7.998;2023-04-03T19:37:56;2.67;;;1.23;;
15110;SDS011;7656;51.954;7.998;2023-04-03T19:42:18;2.23;;;1.33;;
15110;SDS011;7656;51.954;7.998;2023-04-03T19:46:39;2.47;;;1.60;;
15110;SDS011;7656;51.954;7.998;2023-04-03T19:51:01;1.60;;;1.23;;
15110;SDS011;7656;51.954;7.998;2023-04-03T19:55:25;3.97;;;2.00;;
15110;SDS011;7656;51.954;7.998;2023-04-03T19:59:51;1.57;;;1.47;;
15110;SDS011;7656;51.954;7.998;2023-04-03T20:04:13;1.43;;;1.33;;
15110;SDS011;7656;51.954;7.998;2023-04-03T20:08:34;3.43;;;1.90;;
15110;SDS011;7656;51.954;7.998;2023-04-03T20:12:56;3.27;;;1.67;;
15110;SDS011;7656;51.954;7.998;2023-04-03T20:17:17;2.60;;;1.67;;
15110;SDS011;7656;51.954;7.998;2023-04-03T20:21:39;2.10;;;1.20;;
15110;SDS011;7656;51.954;7.998;2023-04-03T20:26:01;1.43;;;0.90;;
15110;SDS011;7656;51.954;7.998;2023-04-03T20:30:24;2.63;;;1.00;;
15110;SDS011;7656;51.954;7.998;2023-04-03T20:34:45;1.20;;;1.00;;
15110;SDS011;7656;51.954;7.998;2023-04-03T20:39:07;2.30;;;1.17;;
15110;SDS011;7656;51.954;7.998;2023-04-03T20:43:29;1.33;;;1.17;;
15110;SDS011;7656;51.954;7.998;2023-04-03T20:47:50;2.80;;;1.57;;
15110;SDS011;7656;51.954;7.998;2023-04-03T20:52:13;5.40;;;2.37;;
15110;SDS011;7656;51.954;7.998;2023-04-03T20:56:35;4.03;;;3.17;;
15110;SDS011;7656;51.954;7.998;2023-04-03T21:00:57;3.70;;;2.83;;
15110;SDS011;7656;51.954;7.998;2023-04-03T21:05:19;5.17;;;2.97;;
15110;SDS011;7656;51.954;7.998;2023-04-03T21:19:43;3.07;;;2.63;;
15110;SDS011;7656;51.954;7.998;2023-04-03T21:24:06;4.97;;;2.37;;
15110;SDS011;7656;51.954;7.998;2023-04-03T21:28:29;3.17;;;2.20;;
15110;SDS011;7656;51.954;7.998;2023-04-03T21:32:51;3.70;;;2.20;;
15110;SDS011;7656;51.954;7.998;2023-04-03T21:37:12;2.60;;;1.80;;
15110;SDS011;7656;51.954;7.998;2023-04-03T21:41:34;1.90;;;1.70;;
15110;SDS011;7656;51.954;7.998;2023-04-03T21:45:56;2.00;;;1.70;;
15110;SDS011;7656;51.954;7.998;2023-04-03T21:50:19;3.33;;;1.50;;
15110;SDS011;7656;51.954;7.998;2023-04-03T21:54:40;1.47;;;1.17;;
15110;SDS011;7656;51.954;7.998;2023-04-03T21:59:02;1.87;;;1.60;;
15110;SDS011;7656;51.954;7.998;2023-04-03T22:03:24;2.20;;;1.30;;
15110;SDS011;7656;51.954;7.998;2023-04-03T22:07:45;2.20;;;1.43;;
15110;SDS011;7656;51.954;7.998;2023-04-03T22:12:07;1.80;;;1.30;;
15110;SDS011;7656;51.954;7.998;2023-04-03T22:16:31;2.17;;;1.60;;
15110;SDS011;7656;51.954;7.998;2023-04-03T22:20:52;3.00;;;1.50;;
15110;SDS011;7656;51.954;7.998;2023-04-03T22:25:14;2.00;;;1.60;;
15110;SDS011;7656;51.954;7.998;2023-04-03T22:29:36;5.43;;;2.20;;
15110;SDS011;7656;51.954;7.998;2023-04-03T22:33:57;2.97;;;1.90;;
15110;SDS011;7656;51.954;7.998;2023-04-03T22:38:23;4.70;;;2.83;;
15110;SDS011;7656;51.954;7.998;2023-04-03T22:42:45;5.17;;;2.90;;
15110;SDS011;7656;51.954;7.998;2023-04-03T22:47:07;3.27;;;2.47;;
15110;SDS011;7656;51.954;7.998;2023-04-03T22:51:29;4.77;;;3.10;;
15110;SDS011;7656;51.954;7.998;2023-04-03T22:56:00;5.23;;;3.07;;
15110;SDS011;7656;51.954;7.998;2023-04-03T23:00:24;5.03;;;2.97;;
15110;SDS011;7656;51.954;7.998;2023-04-03T23:04:47;4.50;;;3.37;;
15110;SDS011;7656;51.954;7.998;2023-04-03T23:09:08;4.73;;;3.23;;
15110;SDS011;7656;51.954;7.998;2023-04-03T23:13:30;5.00;;;3.13;;
15110;SDS011;7656;51.954;7.998;2023-04-03T23:17:51;4.57;;;2.40;;
15110;SDS011;7656;51.954;7.998;2023-04-03T23:22:13;5.40;;;3.43;;
15110;SDS011;7656;51.954;7.998;2023-04-03T23:26:35;8.00;;;3.80;;
15110;SDS011;7656;51.954;7.998;2023-04-03T23:30:57;8.00;;;3.20;;
15110;SDS011;7656;51.954;7.998;2023-04-03T23:35:20;4.33;;;2.30;;
15110;SDS011;7656;51.954;7.998;2023-04-03T23:39:42;2.70;;;1.97;;
15110;SDS011;7656;51.954;7.998;2023-04-03T23:44:04;4.23;;;2.43;;
15110;SDS011;7656;51.954;7.998;2023-04-03T23:48:26;3.90;;;2.40;;
15110;SDS011;7656;51.954;7.998;2023-04-03T23:52:47;3.30;;;2.20;;
15110;SDS011;7656;51.954;7.998;2023-04-03T23:57:09;2.63;;;2.07;;
